sensor_id;sensor_type;location;lat;lon;timestamp;pressure;altitude;pressure_sealevel;temperature;humidity
6038;BME280;3047;42.600;23.470;2023-04-08T00:01:49;93087.50;;;5.77;87.49
6038;BME280;3047;42.600;23.470;2023-04-08T00:04:16;93085.00;;;5.74;86.45
6038;BME280;3047;42.600;23.470;2023-04-08T00:06:43;93082.56;;;5.69;87.29
6038;BME280;3047;42.600;23.470;2023-04-08T00:09:09;93055.28;;;5.38;88.40
6038;BME280;3047;42.600;23.470;2023-04-08T00:11:36;93058.56;;;5.45;88.91
6038;BME280;3047;42.600;23.470;2023-04-08T00:14:03;93085.91;;;5.66;88.39
6038;BME280;3047;42.600;23.470;2023-04-08T00:16:30;93051.88;;;5.47;87.77
6038;BME280;3047;42.600;23.470;2023-04-08T00:18:58;93095.81;;;5.80;87.68
6038;BME280;3047;42.600;23.470;2023-04-08T00:21:25;93070.81;;;5.73;87.87
6038;BME280;3047;42.600;23.470;2023-04-08T00:23:52;93089.88;;;5.86;87.10
6038;BME280;3047;42.600;23.470;2023-04-08T00:26:19;93089.19;;;5.73;87.22
6038;BME280;3047;42.600;23.470;2023-04-08T00:28:45;93097.50;;;5.75;86.66
6038;BME280;3047;42.600;23.470;2023-04-08T00:31:12;93096.06;;;5.56;87.46
6038;BME280;3047;42.600;23.470;2023-04-08T00:33:39;93089.47;;;5.47;88.33
6038;BME280;3047;42.600;23.470;2023-04-08T00:36:07;93094.41;;;5.50;88.82
6038;BME280;3047;42.600;23.470;2023-04-08T00:38:33;93090.97;;;5.63;88.33
6038;BME280;3047;42.600;23.470;2023-04-08T00:41:00;93090.91;;;5.68;88.02
6038;BME280;3047;42.600;23.470;2023-04-08T00:43:27;93095.03;;;5.74;87.65
6038;BME280;3047;42.600;23.470;2023-04-08T00:45:53;93090.97;;;5.63;87.31
6038;BME280;3047;42.600;23.470;2023-04-08T00:48:20;93013.94;;;4.99;87.20
6038;BME280;3047;42.600;23.470;2023-04-08T00:50:47;93092.94;;;5.31;88.28
6038;BME280;3047;42.600;23.470;2023-04-08T00:53:17;93089.59;;;5.29;88.99
6038;BME280;3047;42.600;23.470;2023-04-08T00:55:44;93093.03;;;5.17;89.41
6038;BME280;3047;42.600;23.470;2023-04-08T00:58:11;93073.88;;;5.13;88.77
6038;BME280;3047;42.600;23.470;2023-04-08T01:00:42;93073.03;;;5.12;88.96
6038;BME280;3047;42.600;23.470;2023-04-08T01:03:13;93095.47;;;5.28;88.06
6038;BME280;3047;42.600;23.470;2023-04-08T01:05:46;93092.84;;;5.43;87.08
6038;BME280;3047;42.600;23.470;2023-04-08T01:08:16;93079.47;;;5.41;86.04
6038;BME280;3047;42.600;23.470;2023-04-08T01:10:46;93076.16;;;5.40;87.57
6038;BME280;3047;42.600;23.470;2023-04-08T01:13:17;93092.81;;;5.41;89.19
6038;BME280;3047;42.600;23.470;2023-04-08T01:15:45;93062.88;;;5.32;89.01
6038;BME280;3047;42.600;23.470;2023-04-08T01:18:13;93071.91;;;5.49;87.77
6038;BME280;3047;42.600;23.470;2023-04-08T01:20:42;93092.63;;;5.63;87.54
6038;BME280;3047;42.600;23.470;2023-04-08T01:23:14;93096.75;;;5.67;86.82
6038;BME280;3047;42.600;23.470;2023-04-08T01:25:46;93094.22;;;5.72;86.36
6038;BME280;3047;42.600;23.470;2023-04-08T01:28:15;93096.72;;;5.73;84.56
6038;BME280;3047;42.600;23.470;2023-04-08T01:30:44;93101.75;;;5.70;86.14
6038;BME280;3047;42.600;23.470;2023-04-08T01:33:14;93100.94;;;5.68;85.13
6038;BME280;3047;42.600;23.470;2023-04-08T01:35:41;93105.91;;;5.71;84.19
6038;BME280;3047;42.600;23.470;2023-04-08T01:38:12;93100.06;;;5.72;86.14
6038;BME280;3047;42.600;23.470;2023-04-08T01:40:40;93100.00;;;5.78;86.84
6038;BME280;3047;42.600;23.470;2023-04-08T01:43:09;93104.13;;;5.82;88.60
6038;BME280;3047;42.600;23.470;2023-04-08T01:45:38;93096.59;;;5.85;89.93
6038;BME280;3047;42.600;23.470;2023-04-08T01:48:06;93101.66;;;5.78;90.20
6038;BME280;3047;42.600;23.470;2023-04-08T01:50:33;93107.56;;;5.74;89.84
6038;BME280;3047;42.600;23.470;2023-04-08T01:53:01;93100.22;;;5.54;91.68
6038;BME280;3047;42.600;23.470;2023-04-08T01:55:31;93097.78;;;5.48;92.45
6038;BME280;3047;42.600;23.470;2023-04-08T01:57:59;93091.91;;;5.50;91.33
6038;BME280;3047;42.600;23.470;2023-04-08T02:00:29;93105.94;;;5.68;91.67
6038;BME280;3047;42.600;23.470;2023-04-08T02:02:56;93100.88;;;5.71;90.08
6038;BME280;3047;42.600;23.470;2023-04-08T02:05:23;93111.75;;;5.73;89.78
6038;BME280;3047;42.600;23.470;2023-04-08T02:07:50;93111.69;;;5.78;87.30
6038;BME280;3047;42.600;23.470;2023-04-08T02:10:17;93118.41;;;5.76;84.50
6038;BME280;3047;42.600;23.470;2023-04-08T02:12:44;93089.34;;;5.58;83.86
6038;BME280;3047;42.600;23.470;2023-04-08T02:15:12;93128.34;;;5.83;81.27
6038;BME280;3047;42.600;23.470;2023-04-08T02:17:43;93127.59;;;5.77;82.04
6038;BME280;3047;42.600;23.470;2023-04-08T02:20:15;93109.34;;;5.64;82.98
6038;BME280;3047;42.600;23.470;2023-04-08T02:22:47;93130.13;;;5.72;82.08
6038;BME280;3047;42.600;23.470;2023-04-08T02:25:16;93086.16;;;5.43;80.39
6038;BME280;3047;42.600;23.470;2023-04-08T02:27:44;93091.09;;;5.51;80.65
6038;BME280;3047;42.600;23.470;2023-04-08T02:30:14;93106.00;;;5.63;79.66
6038;BME280;3047;42.600;23.470;2023-04-08T02:32:43;93121.75;;;5.76;80.51
6038;BME280;3047;42.600;23.470;2023-04-08T02:35:11;93123.34;;;5.82;81.84
6038;BME280;3047;42.600;23.470;2023-04-08T02:37:38;93122.53;;;5.81;81.32
6038;BME280;3047;42.600;23.470;2023-04-08T02:40:21;93118.34;;;5.82;80.30
6038;BME280;3047;42.600;23.470;2023-04-08T02:42:48;93122.44;;;5.89;79.65
6038;BME280;3047;42.600;23.470;2023-04-08T02:45:15;93114.19;;;5.79;80.83
6038;BME280;3047;42.600;23.470;2023-04-08T02:47:43;93114.91;;;5.90;81.43
6038;BME280;3047;42.600;23.470;2023-04-08T02:50:10;93112.56;;;5.74;82.28
6038;BME280;3047;42.600;23.470;2023-04-08T02:52:37;93108.34;;;5.80;81.57
6038;BME280;3047;42.600;23.470;2023-04-08T02:55:04;93121.66;;;5.82;81.35
6038;BME280;3047;42.600;23.470;2023-04-08T02:57:34;93110.03;;;5.80;80.47
6038;BME280;3047;42.600;23.470;2023-04-08T03:00:01;93128.28;;;5.94;79.59
6038;BME280;3047;42.600;23.470;2023-04-08T03:02:28;93123.25;;;5.94;79.25
6038;BME280;3047;42.600;23.470;2023-04-08T03:04:56;93129.03;;;5.99;79.07
6038;BME280;3047;42.600;23.470;2023-04-08T03:07:23;93124.13;;;5.93;80.64
6038;BME280;3047;42.600;23.470;2023-04-08T03:09:50;93130.78;;;5.94;82.46
6038;BME280;3047;42.600;23.470;2023-04-08T03:12:16;93131.56;;;5.98;81.93
6038;BME280;3047;42.600;23.470;2023-04-08T03:14:43;93128.22;;;5.99;79.95
6038;BME280;3047;42.600;23.470;2023-04-08T03:17:10;93124.88;;;5.98;78.93
6038;BME280;3047;42.600;23.470;2023-04-08T03:19:36;93114.88;;;5.95;78.85
6038;BME280;3047;42.600;23.470;2023-04-08T03:22:04;93114.84;;;6.01;80.10
6038;BME280;3047;42.600;23.470;2023-04-08T03:24:31;93121.47;;;6.05;81.33
6038;BME280;3047;42.600;23.470;2023-04-08T03:26:58;93118.03;;;6.14;81.74
6038;BME280;3047;42.600;23.470;2023-04-08T03:29:25;93118.09;;;6.09;82.42
6038;BME280;3047;42.600;23.470;2023-04-08T03:31:51;93114.84;;;5.98;86.32
6038;BME280;3047;42.600;23.470;2023-04-08T03:34:18;93064.22;;;5.64;87.41
6038;BME280;3047;42.600;23.470;2023-04-08T03:36:45;93114.84;;;5.98;87.49
6038;BME280;3047;42.600;23.470;2023-04-08T03:39:13;93118.13;;;6.05;85.43
6038;BME280;3047;42.600;23.470;2023-04-08T03:41:39;93127.34;;;6.04;85.43
6038;BME280;3047;42.600;23.470;2023-04-08T03:44:07;93085.69;;;5.86;84.70
6038;BME280;3047;42.600;23.470;2023-04-08T03:46:33;93108.25;;;5.89;86.54
6038;BME280;3047;42.600;23.470;2023-04-08T03:49:00;93123.19;;;6.02;85.44
6038;BME280;3047;42.600;23.470;2023-04-08T03:51:27;93112.41;;;5.93;86.24
6038;BME280;3047;42.600;23.470;2023-04-08T03:53:54;93131.47;;;6.07;85.86
6038;BME280;3047;42.600;23.470;2023-04-08T03:56:22;93109.88;;;5.97;86.86
6038;BME280;3047;42.600;23.470;2023-04-08T03:58:49;93120.69;;;6.02;87.10
6038;BME280;3047;42.600;23.470;2023-04-08T04:01:16;93110.66;;;5.99;85.68
6038;BME280;3047;42.600;23.470;2023-04-08T04:03:42;93114.00;;;6.01;87.66
6038;BME280;3047;42.600;23.470;2023-04-08T04:06:09;93092.38;;;5.87;88.41
6038;BME280;3047;42.600;23.470;2023-04-08T04:08:36;93123.16;;;6.05;89.13
6038;BME280;3047;42.600;23.470;2023-04-08T04:11:03;93111.56;;;5.90;87.70
6038;BME280;3047;42.600;23.470;2023-04-08T04:13:31;93118.41;;;5.76;89.27
6038;BME280;3047;42.600;23.470;2023-04-08T04:15:58;93089.47;;;5.44;89.88
6038;BME280;3047;42.600;23.470;2023-04-08T04:18:24;93110.09;;;5.72;89.12
6038;BME280;3047;42.600;23.470;2023-04-08T04:20:51;93118.59;;;5.54;91.73
6038;BME280;3047;42.600;23.470;2023-04-08T04:23:18;93128.53;;;5.62;91.17
6038;BME280;3047;42.600;23.470;2023-04-08T04:25:44;93090.31;;;5.43;90.40
6038;BME280;3047;42.600;23.470;2023-04-08T04:28:11;93126.81;;;5.70;90.40
6038;BME280;3047;42.600;23.470;2023-04-08T04:30:40;93110.97;;;5.66;88.28
6038;BME280;3047;42.600;23.470;2023-04-08T04:33:07;93125.94;;;5.71;89.94
6038;BME280;3047;42.600;23.470;2023-04-08T04:35:34;93125.09;;;5.74;90.34
6038;BME280;3047;42.600;23.470;2023-04-08T04:38:00;93120.88;;;5.79;89.69
6038;BME280;3047;42.600;23.470;2023-04-08T04:40:27;93122.44;;;5.89;88.36
6038;BME280;3047;42.600;23.470;2023-04-08T04:42:54;93124.00;;;6.04;87.66
6038;BME280;3047;42.600;23.470;2023-04-08T04:45:20;93117.34;;;6.01;87.36
6038;BME280;3047;42.600;23.470;2023-04-08T04:47:48;93119.03;;;6.01;87.63
6038;BME280;3047;42.600;23.470;2023-04-08T04:50:15;93118.28;;;5.88;88.48
6038;BME280;3047;42.600;23.470;2023-04-08T04:52:42;93120.78;;;5.89;89.37
6038;BME280;3047;42.600;23.470;2023-04-08T04:55:09;93109.94;;;5.86;88.97
6038;BME280;3047;42.600;23.470;2023-04-08T04:57:36;93133.22;;;5.99;89.36
6038;BME280;3047;42.600;23.470;2023-04-08T05:00:03;93131.56;;;6.01;88.31
6038;BME280;3047;42.600;23.470;2023-04-08T05:02:30;93135.75;;;5.99;87.99
6038;BME280;3047;42.600;23.470;2023-04-08T05:04:58;93130.00;;;5.83;89.18
6038;BME280;3047;42.600;23.470;2023-04-08T05:07:24;93094.19;;;5.76;88.15
6038;BME280;3047;42.600;23.470;2023-04-08T05:09:51;93129.19;;;5.84;89.57
6038;BME280;3047;42.600;23.470;2023-04-08T05:12:19;93135.09;;;5.77;89.87
6038;BME280;3047;42.600;23.470;2023-04-08T05:14:46;93117.59;;;5.72;89.79
6038;BME280;3047;42.600;23.470;2023-04-08T05:17:12;93122.59;;;5.74;90.52
6038;BME280;3047;42.600;23.470;2023-04-08T05:19:40;93124.25;;;5.75;90.50
6038;BME280;3047;42.600;23.470;2023-04-08T05:22:08;93124.22;;;5.78;90.54
6038;BME280;3047;42.600;23.470;2023-04-08T05:24:35;93130.16;;;5.69;91.09
6038;BME280;3047;42.600;23.470;2023-04-08T05:27:01;93121.72;;;5.78;90.94
6038;BME280;3047;42.600;23.470;2023-04-08T05:29:28;93125.84;;;5.83;90.82
6038;BME280;3047;42.600;23.470;2023-04-08T05:31:55;93127.41;;;5.97;90.99
6038;BME280;3047;42.600;23.470;2023-04-08T05:34:21;93111.47;;;6.04;89.87
6038;BME280;3047;42.600;23.470;2023-04-08T05:36:48;93121.41;;;6.10;90.55
6038;BME280;3047;42.600;23.470;2023-04-08T05:39:18;93122.16;;;6.18;90.22
6038;BME280;3047;42.600;23.470;2023-04-08T05:41:45;93124.56;;;6.29;90.90
6038;BME280;3047;42.600;23.470;2023-04-08T05:44:12;93124.47;;;6.35;90.09
6038;BME280;3047;42.600;23.470;2023-04-08T05:46:39;93134.41;;;6.42;90.38
6038;BME280;3047;42.600;23.470;2023-04-08T05:49:05;93127.56;;;6.57;88.94
6038;BME280;3047;42.600;23.470;2023-04-08T05:51:32;93105.03;;;6.51;88.62
6038;BME280;3047;42.600;23.470;2023-04-08T05:53:59;93133.25;;;6.69;89.71
6038;BME280;3047;42.600;23.470;2023-04-08T05:56:27;93137.22;;;6.84;88.89
6038;BME280;3047;42.600;23.470;2023-04-08T05:58:54;93143.84;;;6.90;89.29
6038;BME280;3047;42.600;23.470;2023-04-08T06:01:21;93117.31;;;6.72;90.64
6038;BME280;3047;42.600;23.470;2023-04-08T06:03:47;93138.00;;;6.89;89.28
6038;BME280;3047;42.600;23.470;2023-04-08T06:06:14;93122.44;;;6.64;91.03
6038;BME280;3047;42.600;23.470;2023-04-08T06:08:41;93105.00;;;6.54;92.89
6038;BME280;3047;42.600;23.470;2023-04-08T06:11:07;93131.66;;;6.62;94.34
6038;BME280;3047;42.600;23.470;2023-04-08T06:13:36;93090.06;;;6.46;92.94
6038;BME280;3047;42.600;23.470;2023-04-08T06:16:09;93139.78;;;6.81;92.87
6038;BME280;3047;42.600;23.470;2023-04-08T06:18:36;93095.72;;;6.60;92.58
6038;BME280;3047;42.600;23.470;2023-04-08T06:21:03;93119.78;;;6.75;94.50
6038;BME280;3047;42.600;23.470;2023-04-08T06:23:30;93125.25;;;7.03;92.46
6038;BME280;3047;42.600;23.470;2023-04-08T06:25:56;93128.50;;;7.10;93.17
6038;BME280;3047;42.600;23.470;2023-04-08T06:28:23;93125.88;;;7.17;91.94
6038;BME280;3047;42.600;23.470;2023-04-08T06:30:51;93125.81;;;7.22;92.24
6038;BME280;3047;42.600;23.470;2023-04-08T06:33:18;93121.47;;;7.32;92.83
6038;BME280;3047;42.600;23.470;2023-04-08T06:35:45;93137.00;;;7.55;90.12
6038;BME280;3047;42.600;23.470;2023-04-08T06:38:11;93124.28;;;7.64;90.44
6038;BME280;3047;42.600;23.470;2023-04-08T06:40:38;93137.53;;;7.74;89.13
6038;BME280;3047;42.600;23.470;2023-04-08T06:43:05;93129.09;;;7.78;89.43
6038;BME280;3047;42.600;23.470;2023-04-08T06:45:32;93128.09;;;7.87;90.72
6038;BME280;3047;42.600;23.470;2023-04-08T06:48:00;93131.28;;;7.97;92.14
6038;BME280;3047;42.600;23.470;2023-04-08T06:50:27;93083.97;;;7.69;87.86
6038;BME280;3047;42.600;23.470;2023-04-08T06:52:53;93141.00;;;8.15;89.89
6038;BME280;3047;42.600;23.470;2023-04-08T06:55:20;93132.47;;;8.22;88.29
6038;BME280;3047;42.600;23.470;2023-04-08T06:57:47;93132.47;;;8.22;87.69
6038;BME280;3047;42.600;23.470;2023-04-08T07:00:14;93117.56;;;8.13;86.91
6038;BME280;3047;42.600;23.470;2023-04-08T07:02:41;93125.97;;;8.12;89.09
6038;BME280;3047;42.600;23.470;2023-04-08T07:05:09;93140.94;;;8.20;86.54
6038;BME280;3047;42.600;23.470;2023-04-08T07:07:36;93143.31;;;8.27;88.16
6038;BME280;3047;42.600;23.470;2023-04-08T07:10:03;93144.22;;;8.23;85.47
6038;BME280;3047;42.600;23.470;2023-04-08T07:12:30;93147.50;;;8.25;87.10
6038;BME280;3047;42.600;23.470;2023-04-08T07:14:57;93148.28;;;8.29;86.18
6038;BME280;3047;42.600;23.470;2023-04-08T07:17:24;93140.66;;;8.33;85.33
6038;BME280;3047;42.600;23.470;2023-04-08T07:19:51;93134.16;;;8.22;87.70
6038;BME280;3047;42.600;23.470;2023-04-08T07:22:19;93149.84;;;8.36;85.46
6038;BME280;3047;42.600;23.470;2023-04-08T07:24:46;93154.75;;;8.44;83.93
6038;BME280;3047;42.600;23.470;2023-04-08T07:27:14;93126.38;;;8.35;85.85
6038;BME280;3047;42.600;23.470;2023-04-08T07:29:41;93159.38;;;8.65;85.14
6038;BME280;3047;42.600;23.470;2023-04-08T07:32:07;93156.75;;;8.70;85.88
6038;BME280;3047;42.600;23.470;2023-04-08T07:34:34;93140.28;;;8.55;82.54
6038;BME280;3047;42.600;23.470;2023-04-08T07:37:01;93160.09;;;8.70;83.73
6038;BME280;3047;42.600;23.470;2023-04-08T07:39:29;93165.69;;;8.84;84.01
6038;BME280;3047;42.600;23.470;2023-04-08T07:41:56;93164.72;;;8.91;84.80
6038;BME280;3047;42.600;23.470;2023-04-08T07:44:23;93162.91;;;8.97;83.41
6038;BME280;3047;42.600;23.470;2023-04-08T07:46:50;93172.78;;;9.06;81.96
6038;BME280;3047;42.600;23.470;2023-04-08T07:49:17;93171.16;;;9.03;81.16
6038;BME280;3047;42.600;23.470;2023-04-08T07:51:44;93175.25;;;9.09;83.97
6038;BME280;3047;42.600;23.470;2023-04-08T07:54:11;93174.22;;;9.18;81.53
6038;BME280;3047;42.600;23.470;2023-04-08T07:56:43;93180.59;;;9.34;81.09
6038;BME280;3047;42.600;23.470;2023-04-08T07:59:10;93174.69;;;9.35;80.54
6038;BME280;3047;42.600;23.470;2023-04-08T08:01:36;93170.41;;;9.38;81.10
6038;BME280;3047;42.600;23.470;2023-04-08T08:04:03;93181.84;;;9.52;79.27
6038;BME280;3047;42.600;23.470;2023-04-08T08:06:30;93160.97;;;9.47;80.34
6038;BME280;3047;42.600;23.470;2023-04-08T08:08:58;93189.19;;;9.62;77.49
6038;BME280;3047;42.600;23.470;2023-04-08T08:11:24;93184.97;;;9.63;78.61
6038;BME280;3047;42.600;23.470;2023-04-08T08:13:53;93156.56;;;9.56;79.61
6038;BME280;3047;42.600;23.470;2023-04-08T08:16:21;93150.34;;;9.70;79.36
6038;BME280;3047;42.600;23.470;2023-04-08T08:18:51;93178.38;;;9.93;78.63
6038;BME280;3047;42.600;23.470;2023-04-08T08:21:18;93149.16;;;9.84;79.82
6038;BME280;3047;42.600;23.470;2023-04-08T08:23:45;93159.47;;;10.08;78.51
6038;BME280;3047;42.600;23.470;2023-04-08T08:26:12;93175.09;;;10.22;80.04
6038;BME280;3047;42.600;23.470;2023-04-08T08:28:39;93174.78;;;10.36;78.93
6038;BME280;3047;42.600;23.470;2023-04-08T08:31:07;93187.06;;;10.48;79.45
6038;BME280;3047;42.600;23.470;2023-04-08T08:33:34;93187.13;;;10.47;79.59
6038;BME280;3047;42.600;23.470;2023-04-08T08:36:01;93193.00;;;10.47;80.39
6038;BME280;3047;42.600;23.470;2023-04-08T08:38:29;93145.50;;;10.29;80.18
6038;BME280;3047;42.600;23.470;2023-04-08T08:40:57;93190.19;;;10.58;81.72
6038;BME280;3047;42.600;23.470;2023-04-08T08:43:24;93185.28;;;10.53;80.40
6038;BME280;3047;42.600;23.470;2023-04-08T08:45:51;93182.81;;;10.50;80.94
6038;BME280;3047;42.600;23.470;2023-04-08T08:48:19;93187.69;;;10.56;80.83
6038;BME280;3047;42.600;23.470;2023-04-08T08:50:46;93172.66;;;10.52;80.86
6038;BME280;3047;42.600;23.470;2023-04-08T08:53:13;93189.41;;;10.56;79.26
6038;BME280;3047;42.600;23.470;2023-04-08T08:55:40;93193.69;;;10.52;80.93
6038;BME280;3047;42.600;23.470;2023-04-08T08:58:07;93183.59;;;10.52;83.63
6038;BME280;3047;42.600;23.470;2023-04-08T09:00:35;93172.75;;;10.49;78.14
6038;BME280;3047;42.600;23.470;2023-04-08T09:03:14;93202.38;;;10.75;78.51
6038;BME280;3047;42.600;23.470;2023-04-08T09:05:48;93205.22;;;10.62;80.53
6038;BME280;3047;42.600;23.470;2023-04-08T09:08:27;93207.88;;;10.58;82.73
6038;BME280;3047;42.600;23.470;2023-04-08T09:10:54;93190.91;;;10.63;79.68
6038;BME280;3047;42.600;23.470;2023-04-08T09:13:21;93208.63;;;10.61;80.69
6038;BME280;3047;42.600;23.470;2023-04-08T09:16:02;93213.22;;;10.78;78.97
6038;BME280;3047;42.600;23.470;2023-04-08T09:18:30;93170.63;;;10.66;81.02
6038;BME280;3047;42.600;23.470;2023-04-08T09:20:59;93209.09;;;11.05;81.39
6038;BME280;3047;42.600;23.470;2023-04-08T09:23:40;93216.91;;;11.26;78.69
6038;BME280;3047;42.600;23.470;2023-04-08T09:26:08;93187.78;;;11.14;80.16
6038;BME280;3047;42.600;23.470;2023-04-08T09:28:35;93212.38;;;11.38;79.11
6038;BME280;3047;42.600;23.470;2023-04-08T09:31:17;93207.38;;;11.63;76.92
6038;BME280;3047;42.600;23.470;2023-04-08T09:33:45;93210.88;;;11.59;76.85
6038;BME280;3047;42.600;23.470;2023-04-08T09:36:14;93197.78;;;11.47;75.83
6038;BME280;3047;42.600;23.470;2023-04-08T09:38:41;93205.00;;;11.59;77.40
6038;BME280;3047;42.600;23.470;2023-04-08T09:41:12;93205.22;;;11.51;76.54
6038;BME280;3047;42.600;23.470;2023-04-08T09:43:42;93193.16;;;11.03;77.45
6038;BME280;3047;42.600;23.470;2023-04-08T09:46:13;93197.38;;;11.03;80.17
6038;BME280;3047;42.600;23.470;2023-04-08T09:48:47;93204.16;;;11.01;79.99
6038;BME280;3047;42.600;23.470;2023-04-08T09:51:16;93200.53;;;11.11;80.49
6038;BME280;3047;42.600;23.470;2023-04-08T09:53:46;93200.47;;;11.12;79.05
6038;BME280;3047;42.600;23.470;2023-04-08T09:56:14;93185.78;;;10.96;80.74
6038;BME280;3047;42.600;23.470;2023-04-08T09:58:50;93194.25;;;10.95;80.24
6038;BME280;3047;42.600;23.470;2023-04-08T10:01:22;93182.09;;;10.76;81.86
6038;BME280;3047;42.600;23.470;2023-04-08T10:03:53;93179.97;;;10.92;82.59
6038;BME280;3047;42.600;23.470;2023-04-08T10:06:27;93185.16;;;10.87;81.68
6038;BME280;3047;42.600;23.470;2023-04-08T10:08:55;93154.38;;;10.75;81.71
6038;BME280;3047;42.600;23.470;2023-04-08T10:11:23;93178.88;;;11.02;82.55
6038;BME280;3047;42.600;23.470;2023-04-08T10:13:50;93171.22;;;11.04;80.57
6038;BME280;3047;42.600;23.470;2023-04-08T10:16:18;93173.00;;;11.00;80.58
6038;BME280;3047;42.600;23.470;2023-04-08T10:18:46;93145.97;;;10.74;79.50
6038;BME280;3047;42.600;23.470;2023-04-08T10:21:38;93144.47;;;10.67;78.34
6038;BME280;3047;42.600;23.470;2023-04-08T10:24:08;93155.78;;;10.54;81.66
6038;BME280;3047;42.600;23.470;2023-04-08T10:26:37;93168.13;;;10.64;80.51
6038;BME280;3047;42.600;23.470;2023-04-08T10:29:29;93169.13;;;10.59;79.68
6038;BME280;3047;42.600;23.470;2023-04-08T10:31:56;93160.03;;;10.52;78.23
6038;BME280;3047;42.600;23.470;2023-04-08T10:34:24;93165.28;;;10.46;78.15
6038;BME280;3047;42.600;23.470;2023-04-08T10:36:53;93161.94;;;10.44;78.46
6038;BME280;3047;42.600;23.470;2023-04-08T10:39:21;93151.94;;;10.40;78.38
6038;BME280;3047;42.600;23.470;2023-04-08T10:41:49;93161.59;;;10.57;77.51
6038;BME280;3047;42.600;23.470;2023-04-08T10:44:16;93158.94;;;10.62;79.23
6038;BME280;3047;42.600;23.470;2023-04-08T10:46:43;93153.63;;;10.71;77.75
6038;BME280;3047;42.600;23.470;2023-04-08T10:49:10;93160.81;;;10.85;73.97
6038;BME280;3047;42.600;23.470;2023-04-08T10:51:37;93145.78;;;10.80;74.49
6038;BME280;3047;42.600;23.470;2023-04-08T10:54:10;93150.97;;;10.76;73.57
6038;BME280;3047;42.600;23.470;2023-04-08T10:56:43;93162.69;;;10.78;73.40
6038;BME280;3047;42.600;23.470;2023-04-08T10:59:10;93127.13;;;10.55;74.04
6038;BME280;3047;42.600;23.470;2023-04-08T11:01:41;93147.78;;;10.69;72.59
6038;BME280;3047;42.600;23.470;2023-04-08T11:04:16;93148.38;;;10.77;72.19
6038;BME280;3047;42.600;23.470;2023-04-08T11:06:45;93145.66;;;10.85;73.29
6038;BME280;3047;42.600;23.470;2023-04-08T11:09:14;93141.66;;;11.06;74.20
6038;BME280;3047;42.600;23.470;2023-04-08T11:11:42;93132.56;;;11.00;73.28
6038;BME280;3047;42.600;23.470;2023-04-08T11:14:09;93130.25;;;10.94;72.98
6038;BME280;3047;42.600;23.470;2023-04-08T11:16:36;93126.78;;;10.97;74.25
6038;BME280;3047;42.600;23.470;2023-04-08T11:19:04;93121.72;;;10.97;74.66
6038;BME280;3047;42.600;23.470;2023-04-08T11:21:31;93129.38;;;10.94;73.05
6038;BME280;3047;42.600;23.470;2023-04-08T11:24:05;93133.44;;;10.99;74.14
6038;BME280;3047;42.600;23.470;2023-04-08T11:26:33;93127.75;;;10.93;75.37
6038;BME280;3047;42.600;23.470;2023-04-08T11:29:00;93124.59;;;10.84;73.89
6038;BME280;3047;42.600;23.470;2023-04-08T11:31:28;93121.31;;;10.82;75.24
6038;BME280;3047;42.600;23.470;2023-04-08T11:33:55;93119.50;;;10.56;76.97
6038;BME280;3047;42.600;23.470;2023-04-08T11:36:22;93121.19;;;10.57;73.39
6038;BME280;3047;42.600;23.470;2023-04-08T11:38:53;93105.28;;;10.54;71.79
6038;BME280;3047;42.600;23.470;2023-04-08T11:41:19;93084.00;;;10.31;73.11
6038;BME280;3047;42.600;23.470;2023-04-08T11:43:52;93126.25;;;10.56;73.77
6038;BME280;3047;42.600;23.470;2023-04-08T11:46:19;93128.53;;;10.65;76.86
6038;BME280;3047;42.600;23.470;2023-04-08T11:48:59;93136.84;;;10.69;74.39
6038;BME280;3047;42.600;23.470;2023-04-08T11:51:26;93113.59;;;10.57;76.82
6038;BME280;3047;42.600;23.470;2023-04-08T11:53:53;93138.34;;;10.76;76.44
6038;BME280;3047;42.600;23.470;2023-04-08T11:56:22;93146.19;;;10.65;77.88
6038;BME280;3047;42.600;23.470;2023-04-08T11:58:51;93133.56;;;10.65;77.14
6038;BME280;3047;42.600;23.470;2023-04-08T12:01:18;93115.53;;;10.49;80.15
6038;BME280;3047;42.600;23.470;2023-04-08T12:03:58;93125.50;;;10.54;82.92
6038;BME280;3047;42.600;23.470;2023-04-08T12:06:34;93118.75;;;10.53;90.48
6038;BME280;3047;42.600;23.470;2023-04-08T12:09:01;93128.56;;;10.32;85.85
6038;BME280;3047;42.600;23.470;2023-04-08T12:11:28;93122.00;;;10.27;93.12
6038;BME280;3047;42.600;23.470;2023-04-08T12:13:56;93109.63;;;10.16;92.57
6038;BME280;3047;42.600;23.470;2023-04-08T12:16:23;93119.66;;;10.19;94.66
6038;BME280;3047;42.600;23.470;2023-04-08T12:18:49;93119.78;;;10.14;93.33
6038;BME280;3047;42.600;23.470;2023-04-08T12:21:16;93082.16;;;10.05;92.61
6038;BME280;3047;42.600;23.470;2023-04-08T12:23:43;93121.75;;;10.36;93.65
6038;BME280;3047;42.600;23.470;2023-04-08T12:26:10;93119.28;;;10.34;91.61
6038;BME280;3047;42.600;23.470;2023-04-08T12:28:37;93122.19;;;10.19;93.65
6038;BME280;3047;42.600;23.470;2023-04-08T12:31:06;93103.81;;;10.14;97.93
6038;BME280;3047;42.600;23.470;2023-04-08T12:33:32;93105.72;;;10.04;99.08
6038;BME280;3047;42.600;23.470;2023-04-08T12:35:59;93103.13;;;10.07;100.00
6038;BME280;3047;42.600;23.470;2023-04-08T12:38:26;93093.53;;;10.20;100.00
6038;BME280;3047;42.600;23.470;2023-04-08T12:40:53;93087.41;;;10.30;100.00
6038;BME280;3047;42.600;23.470;2023-04-08T12:43:20;93087.75;;;10.49;100.00
6038;BME280;3047;42.600;23.470;2023-04-08T12:45:47;93085.56;;;10.65;100.00
6038;BME280;3047;42.600;23.470;2023-04-08T12:48:15;93086.47;;;10.92;98.99
6038;BME280;3047;42.600;23.470;2023-04-08T12:50:42;93091.16;;;11.04;93.55
6038;BME280;3047;42.600;23.470;2023-04-08T12:53:09;93090.75;;;11.18;89.17
6038;BME280;3047;42.600;23.470;2023-04-08T12:55:36;93091.97;;;11.06;86.34
6038;BME280;3047;42.600;23.470;2023-04-08T12:58:03;93088.34;;;10.85;85.50
6038;BME280;3047;42.600;23.470;2023-04-08T13:00:30;93061.13;;;10.67;86.25
6038;BME280;3047;42.600;23.470;2023-04-08T13:02:56;93083.44;;;10.81;82.18
6038;BME280;3047;42.600;23.470;2023-04-08T13:05:24;93076.75;;;10.80;81.32
6038;BME280;3047;42.600;23.470;2023-04-08T13:07:51;93070.66;;;10.85;83.98
6038;BME280;3047;42.600;23.470;2023-04-08T13:10:18;93046.47;;;10.78;83.50
6038;BME280;3047;42.600;23.470;2023-04-08T13:12:45;93042.75;;;10.90;80.84
6038;BME280;3047;42.600;23.470;2023-04-08T13:15:11;93025.47;;;10.76;84.30
6038;BME280;3047;42.600;23.470;2023-04-08T13:17:41;93061.25;;;10.91;84.16
6038;BME280;3047;42.600;23.470;2023-04-08T13:20:08;93059.34;;;10.99;82.61
6038;BME280;3047;42.600;23.470;2023-04-08T13:22:38;93052.00;;;10.89;84.10